Time;durP1;ratioP1;P1;durP2;ratioP2;P2;SDS_P1;SDS_P2;PMS_P1;PMS_P2;Temp;Humidity;BMP_temperature;BMP_pressure;BME280_temperature;BME280_humidity;BME280_pressure;Samples;Min_cycle;Max_cycle;Signal;HPM_P1;HPM_P2
2021/12/01 00:00:48;;;;;;;1.00;0.20;;;4.30;99.90;;;;;;5031741;28;20489;-74
2021/12/01 00:03:14;;;;;;;0.15;0.15;;;4.30;99.90;;;;;;5032958;28;20021;-74
2021/12/01 00:05:40;;;;;;;0.13;0.13;;;4.30;99.90;;;;;;5035691;28;20100;-74
2021/12/01 00:08:06;;;;;;;0.10;0.10;;;4.30;99.90;;;;;;5035745;28;20099;-74
2021/12/01 00:10:34;;;;;;;0.45;0.30;;;4.30;99.90;;;;;;5018113;28;20029;-74
2021/12/01 00:13:05;;;;;;;0.20;0.20;;;4.30;99.90;;;;;;5035443;28;20033;-74
2021/12/01 00:15:32;;;;;;;2.07;0.20;;;4.30;99.90;;;;;;5017761;28;20083;-74
2021/12/01 00:17:58;;;;;;;0.20;0.20;;;4.40;99.90;;;;;;5017796;28;20334;-74
2021/12/01 00:20:24;;;;;;;0.10;0.10;;;4.40;99.90;;;;;;5035869;28;20029;-73
2021/12/01 00:22:50;;;;;;;0.13;0.13;;;4.40;99.90;;;;;;5033942;28;20044;-74
2021/12/01 00:25:18;;;;;;;0.20;0.20;;;4.40;99.90;;;;;;5035241;28;20084;-74
2021/12/01 00:27:46;;;;;;;0.20;0.20;;;4.40;99.90;;;;;;5017658;28;20030;-74
2021/12/01 00:30:12;;;;;;;0.10;0.10;;;4.40;99.90;;;;;;5035297;28;20104;-74
2021/12/01 00:32:38;;;;;;;0.17;0.17;;;4.50;99.90;;;;;;5017469;28;20060;-74
2021/12/01 00:35:06;;;;;;;0.13;0.13;;;4.50;99.90;;;;;;5000921;28;20032;-74
2021/12/01 00:37:32;;;;;;;0.20;0.20;;;4.50;99.90;;;;;;5017406;28;20026;-73
2021/12/01 00:39:58;;;;;;;0.20;0.20;;;4.50;99.90;;;;;;5034961;28;20417;-74
2021/12/01 00:42:23;;;;;;;0.20;0.20;;;4.40;99.90;;;;;;5017404;28;20041;-73
2021/12/01 00:44:56;;;;;;;0.10;0.10;;;4.50;99.90;;;;;;5017136;28;20025;-74
2021/12/01 00:47:42;;;;;;;0.10;0.10;;;4.50;99.90;;;;;;5000883;28;20056;-74
2021/12/01 00:50:14;;;;;;;0.10;0.10;;;4.50;99.90;;;;;;5034858;28;20032;-74
2021/12/01 00:52:40;;;;;;;0.20;0.20;;;4.60;99.90;;;;;;5017222;28;20385;-74
2021/12/01 00:55:07;;;;;;;0.20;0.20;;;4.60;99.90;;;;;;5016911;28;20036;-74
2021/12/01 00:57:33;;;;;;;0.15;0.15;;;4.60;99.90;;;;;;5034685;28;20029;-74
2021/12/01 00:59:59;;;;;;;0.10;0.10;;;4.60;99.90;;;;;;5034703;28;20465;-74
2021/12/01 01:02:25;;;;;;;0.20;0.20;;;4.70;99.90;;;;;;5017116;28;20033;-74
2021/12/01 01:04:51;;;;;;;0.47;0.47;;;4.70;99.90;;;;;;5034488;28;20032;-74
2021/12/01 01:07:16;;;;;;;0.20;0.20;;;4.70;99.90;;;;;;5034705;28;20128;-74
2021/12/01 01:09:43;;;;;;;0.15;0.15;;;4.70;99.90;;;;;;5016886;28;20104;-73
2021/12/01 01:17:41;;;;;;;0.20;0.20;;;4.70;99.90;;;;;;5016700;28;20487;-74
2021/12/01 01:20:12;;;;;;;0.20;0.20;;;4.70;99.90;;;;;;5034411;28;20524;-74
2021/12/01 01:22:39;;;;;;;0.20;0.20;;;4.70;99.90;;;;;;5034241;28;20022;-74
2021/12/01 01:25:07;;;;;;;0.10;0.10;;;4.70;99.90;;;;;;5034622;28;20152;-73
2021/12/01 01:27:33;;;;;;;0.20;0.20;;;4.70;99.90;;;;;;5016500;28;20531;-74
2021/12/01 01:29:58;;;;;;;0.20;0.20;;;4.70;99.90;;;;;;5000037;28;20030;-74
2021/12/01 01:32:24;;;;;;;0.20;0.20;;;4.80;99.90;;;;;;5016430;28;20120;-74
2021/12/01 01:34:50;;;;;;;0.20;0.20;;;4.80;99.90;;;;;;5033847;28;20025;-74
2021/12/01 01:37:16;;;;;;;0.10;0.10;;;4.80;99.90;;;;;;5016334;28;20109;-74
2021/12/01 01:39:42;;;;;;;0.20;0.20;;;4.80;99.90;;;;;;5033940;28;20045;-74
2021/12/01 01:42:08;;;;;;;0.20;0.20;;;4.80;99.90;;;;;;5016253;28;20063;-74
2021/12/01 01:44:34;;;;;;;0.20;0.20;;;4.80;99.90;;;;;;5033797;28;20032;-74
2021/12/01 01:47:00;;;;;;;0.20;0.20;;;4.80;99.90;;;;;;5016276;28;20021;-74
2021/12/01 01:49:53;;;;;;;0.10;0.10;;;4.90;99.90;;;;;;5016160;28;20096;-74
2021/12/01 01:52:11;;;;;;;0.20;0.20;;;4.90;99.90;;;;;;5015604;28;20087;-74
2021/12/01 01:54:37;;;;;;;0.20;0.20;;;4.90;99.90;;;;;;5015751;28;20116;-74
2021/12/01 01:57:03;;;;;;;0.20;0.20;;;4.90;99.90;;;;;;5033794;28;20083;-74
2021/12/01 01:59:29;;;;;;;0.20;0.20;;;4.90;99.90;;;;;;5015887;28;20075;-74
2021/12/01 02:01:59;;;;;;;0.20;0.20;;;4.90;99.90;;;;;;5015942;28;20377;-74
2021/12/01 02:04:27;;;;;;;0.13;0.13;;;4.90;99.90;;;;;;5033498;28;20083;-74
2021/12/01 02:06:53;;;;;;;0.20;0.20;;;4.90;99.90;;;;;;5015569;28;20481;-74
2021/12/01 02:09:22;;;;;;;0.20;0.20;;;4.90;99.90;;;;;;5033473;28;20097;-74
2021/12/01 02:11:50;;;;;;;0.10;0.10;;;4.90;99.90;;;;;;5015917;28;20108;-74
2021/12/01 02:14:16;;;;;;;0.20;0.20;;;4.90;99.90;;;;;;5015344;28;20099;-75
2021/12/01 02:16:43;;;;;;;0.20;0.20;;;4.90;99.90;;;;;;5015610;28;20025;-74
2021/12/01 02:19:09;;;;;;;0.20;0.20;;;4.90;99.90;;;;;;5033346;28;20515;-74
2021/12/01 02:21:35;;;;;;;0.20;0.20;;;4.90;99.90;;;;;;5031954;28;20024;-74
2021/12/01 02:24:03;;;;;;;0.20;0.20;;;4.90;99.90;;;;;;5033154;28;20029;-74
2021/12/01 02:26:32;;;;;;;0.20;0.20;;;4.90;99.90;;;;;;5014503;28;20433;-74
2021/12/01 02:29:00;;;;;;;0.30;0.30;;;5.00;99.90;;;;;;5031809;28;20026;-74
2021/12/01 02:31:34;;;;;;;0.20;0.20;;;4.90;99.90;;;;;;5015116;28;20443;-73
2021/12/01 02:34:02;;;;;;;0.20;0.20;;;4.90;99.90;;;;;;5015387;28;20025;-74
2021/12/01 02:36:28;;;;;;;0.20;0.20;;;4.90;99.90;;;;;;4998640;28;20496;-74
2021/12/01 02:38:54;;;;;;;0.32;0.30;;;5.00;99.90;;;;;;5032966;28;20413;-73
2021/12/01 02:41:29;;;;;;;0.30;0.30;;;4.90;99.90;;;;;;4998745;28;20022;-74
2021/12/01 02:43:57;;;;;;;0.20;0.20;;;5.00;99.90;;;;;;5032710;28;20021;-74
2021/12/01 02:46:24;;;;;;;0.20;0.20;;;5.00;99.90;;;;;;5014989;28;20481;-74
2021/12/01 02:48:50;;;;;;;0.20;0.20;;;5.00;99.90;;;;;;5032981;28;20028;-74
2021/12/01 02:51:18;;;;;;;0.20;0.20;;;5.00;99.90;;;;;;4998543;28;20048;-74
2021/12/01 02:53:44;;;;;;;0.20;0.20;;;5.10;99.90;;;;;;5032646;28;20021;-74
2021/12/01 02:56:10;;;;;;;0.10;0.10;;;5.10;99.90;;;;;;5014677;28;20033;-74
2021/12/01 02:58:41;;;;;;;2.55;0.30;;;5.10;99.90;;;;;;5032467;28;20045;-74
2021/12/01 03:01:13;;;;;;;0.10;0.10;;;5.20;99.90;;;;;;5032444;28;20024;-74
2021/12/01 03:03:40;;;;;;;0.38;0.38;;;5.20;99.90;;;;;;4998508;28;20021;-74
2021/12/01 03:06:07;;;;;;;0.20;0.20;;;5.20;99.90;;;;;;4998240;28;20444;-74
2021/12/01 03:08:39;;;;;;;0.20;0.20;;;5.20;99.90;;;;;;4998433;28;20025;-74
2021/12/01 03:11:05;;;;;;;0.20;0.20;;;5.20;99.90;;;;;;4998240;28;20124;-74
2021/12/01 03:13:32;;;;;;;0.20;0.20;;;5.10;99.90;;;;;;5032323;28;20037;-73
2021/12/01 03:15:58;;;;;;;0.10;0.10;;;5.20;99.90;;;;;;4998135;28;20148;-74
2021/12/01 03:18:24;;;;;;;0.20;0.20;;;5.20;99.90;;;;;;5032299;28;20021;-74
2021/12/01 03:20:51;;;;;;;0.20;0.20;;;5.20;99.90;;;;;;5014625;28;20022;-74
2021/12/01 03:23:17;;;;;;;0.10;0.10;;;5.20;99.90;;;;;;5014256;28;20041;-74
2021/12/01 03:25:44;;;;;;;0.20;0.20;;;5.20;99.90;;;;;;5030818;28;20108;-74
2021/12/01 03:28:10;;;;;;;0.20;0.20;;;5.10;99.90;;;;;;5014391;28;20022;-74
2021/12/01 03:30:37;;;;;;;0.20;0.20;;;5.10;99.90;;;;;;5032052;28;20384;-73
2021/12/01 03:33:06;;;;;;;0.20;0.20;;;5.00;99.90;;;;;;5014407;28;20517;-74
2021/12/01 03:35:33;;;;;;;0.22;0.22;;;4.90;99.90;;;;;;5031715;28;20029;-74
2021/12/01 03:37:58;;;;;;;0.20;0.20;;;4.80;99.90;;;;;;4997704;28;20022;-74
2021/12/01 03:40:24;;;;;;;0.20;0.20;;;4.70;99.90;;;;;;5014216;28;20132;-74
2021/12/01 03:42:50;;;;;;;0.20;0.20;;;4.70;99.90;;;;;;4997810;28;20112;-74
2021/12/01 03:45:17;;;;;;;0.20;0.20;;;4.80;99.90;;;;;;5014136;28;20388;-74
2021/12/01 03:47:43;;;;;;;0.30;0.30;;;4.80;99.90;;;;;;4997788;28;20228;-74
2021/12/01 03:50:09;;;;;;;0.30;0.30;;;4.80;99.90;;;;;;5031721;28;20108;-74
2021/12/01 03:52:35;;;;;;;0.15;0.15;;;4.80;99.90;;;;;;5031801;28;20473;-74
2021/12/01 03:55:01;;;;;;;0.32;0.32;;;4.90;99.90;;;;;;4997636;28;20079;-74
2021/12/01 03:57:27;;;;;;;0.10;0.10;;;4.90;99.90;;;;;;5014047;28;20385;-74
2021/12/01 03:59:53;;;;;;;0.20;0.20;;;4.90;99.90;;;;;;5031724;28;20076;-74
2021/12/01 04:02:19;;;;;;;0.20;0.20;;;5.00;99.90;;;;;;5031773;28;20427;-74
2021/12/01 04:04:44;;;;;;;0.20;0.20;;;5.00;99.90;;;;;;5013741;28;20075;-74
2021/12/01 04:07:10;;;;;;;0.22;0.22;;;5.00;99.90;;;;;;5013867;28;20029;-73
2021/12/01 04:09:39;;;;;;;0.15;0.15;;;5.10;99.90;;;;;;5014095;28;20386;-74
2021/12/01 04:12:05;;;;;;;0.20;0.20;;;5.10;99.90;;;;;;5031690;28;20437;-74
2021/12/01 04:14:30;;;;;;;0.80;0.68;;;5.10;99.90;;;;;;5031279;28;20049;-74
2021/12/01 04:16:56;;;;;;;0.20;0.20;;;5.10;99.90;;;;;;5031563;28;20021;-74
2021/12/01 04:19:22;;;;;;;0.10;0.10;;;5.20;99.90;;;;;;4997381;28;20055;-74
2021/12/01 04:21:48;;;;;;;0.20;0.20;;;5.20;99.90;;;;;;5013651;28;20026;-74
2021/12/01 04:24:14;;;;;;;0.20;0.20;;;5.20;99.90;;;;;;5031501;28;20096;-74
2021/12/01 04:26:40;;;;;;;0.20;0.20;;;5.20;99.90;;;;;;5031407;28;20025;-74
2021/12/01 04:29:06;;;;;;;0.30;0.30;;;5.30;99.90;;;;;;5031434;28;20032;-74
2021/12/01 04:31:35;;;;;;;0.20;0.20;;;5.30;99.90;;;;;;5031354;28;20036;-74
2021/12/01 04:34:01;;;;;;;0.10;0.10;;;5.30;99.90;;;;;;5013958;28;20107;-74
2021/12/01 04:36:37;;;;;;;0.20;0.20;;;5.30;99.90;;;;;;5013456;28;20030;-74
2021/12/01 04:39:09;;;;;;;0.20;0.20;;;5.30;99.90;;;;;;5031751;28;20437;-74
2021/12/01 04:41:48;;;;;;;;;;;5.30;99.90;;;;;;5013986;28;20025;-74
2021/12/01 04:44:14;;;;;;;0.10;0.10;;;5.30;99.90;;;;;;5031300;28;20000;-74
2021/12/01 04:46:46;;;;;;;0.20;0.20;;;5.40;99.90;;;;;;5013639;28;20508;-74
2021/12/01 04:49:14;;;;;;;0.20;0.20;;;5.30;99.90;;;;;;5033569;28;20496;-73
2021/12/01 04:51:42;;;;;;;0.10;0.10;;;5.30;99.90;;;;;;5017262;28;20057;-74
2021/12/01 04:54:08;;;;;;;0.10;0.10;;;5.30;99.90;;;;;;5000778;28;20479;-73
2021/12/01 04:56:35;;;;;;;0.10;0.10;;;5.30;99.90;;;;;;5034593;28;20033;-74
2021/12/01 04:59:01;;;;;;;0.20;0.20;;;5.30;99.90;;;;;;5034867;28;20041;-75
2021/12/01 05:01:27;;;;;;;0.20;0.20;;;5.20;99.90;;;;;;5034790;28;20021;-74
2021/12/01 05:03:53;;;;;;;0.20;0.20;;;5.30;99.90;;;;;;5017315;28;20030;-74
2021/12/01 05:06:19;;;;;;;0.20;0.20;;;5.30;99.90;;;;;;5016817;28;20550;-74
2021/12/01 05:08:45;;;;;;;0.17;0.17;;;5.30;99.90;;;;;;5016987;28;20037;-74
2021/12/01 05:11:11;;;;;;;0.20;0.20;;;5.20;99.90;;;;;;5016851;28;20033;-74
2021/12/01 05:13:37;;;;;;;0.45;0.30;;;5.10;99.90;;;;;;5034510;23;20052;-72
2021/12/01 05:16:04;;;;;;;0.20;0.20;;;5.00;99.90;;;;;;5053904;28;20024;-71
2021/12/01 05:18:29;;;;;;;0.17;0.17;;;4.90;99.90;;;;;;5054497;28;20051;-71
2021/12/01 05:20:55;;;;;;;0.20;0.20;;;4.90;99.90;;;;;;5054313;28;20419;-72
2021/12/01 05:23:21;;;;;;;0.10;0.10;;;5.10;99.90;;;;;;5054184;28;20021;-71
2021/12/01 05:25:47;;;;;;;0.10;0.10;;;5.20;99.90;;;;;;5054180;28;20114;-71
2021/12/01 05:28:13;;;;;;;0.20;0.20;;;5.30;99.90;;;;;;5054247;28;20108;-72
2021/12/01 05:30:39;;;;;;;0.10;0.10;;;5.30;99.90;;;;;;5054553;28;20111;-72
2021/12/01 05:33:06;;;;;;;0.13;0.13;;;5.30;99.90;;;;;;5054320;28;20071;-71
2021/12/01 05:35:33;;;;;;;0.20;0.20;;;5.20;99.90;;;;;;5053945;28;20538;-71
2021/12/01 05:37:59;;;;;;;0.20;0.20;;;5.10;99.90;;;;;;5036247;28;20017;-71
2021/12/01 05:40:25;;;;;;;0.17;0.15;;;5.10;99.90;;;;;;5054171;28;20365;-72
2021/12/01 05:42:51;;;;;;;0.20;0.20;;;5.10;99.90;;;;;;5053967;28;20086;-72
2021/12/01 05:45:17;;;;;;;0.20;0.20;;;5.10;99.90;;;;;;5019400;28;20455;-72
2021/12/01 05:47:43;;;;;;;0.20;0.20;;;5.10;99.90;;;;;;5053982;28;20025;-71
2021/12/01 05:50:09;;;;;;;0.17;0.17;;;5.10;99.90;;;;;;5053755;28;20025;-72
2021/12/01 05:52:35;;;;;;;0.20;0.20;;;5.10;99.90;;;;;;5053976;28;20083;-71
2021/12/01 05:55:01;;;;;;;0.22;0.22;;;5.10;99.90;;;;;;5053594;28;20029;-71
2021/12/01 05:57:26;;;;;;;0.15;0.15;;;5.20;99.90;;;;;;5053677;28;20361;-72
2021/12/01 05:59:52;;;;;;;0.20;0.20;;;5.20;99.90;;;;;;5053593;28;20504;-72
2021/12/01 06:02:18;;;;;;;0.28;0.28;;;5.20;99.90;;;;;;5035821;28;20017;-71
2021/12/01 06:04:44;;;;;;;0.75;0.75;;;5.20;99.90;;;;;;5053410;28;20126;-71
2021/12/01 06:07:09;;;;;;;0.20;0.20;;;5.30;99.90;;;;;;5053510;28;20031;-71
2021/12/01 06:09:35;;;;;;;0.20;0.20;;;5.30;99.90;;;;;;5053552;28;20032;-72
2021/12/01 06:12:02;;;;;;;0.20;0.20;;;5.30;99.90;;;;;;5053459;28;20555;-72
2021/12/01 06:14:28;;;;;;;0.10;0.10;;;5.30;99.90;;;;;;5053238;28;20029;-71
2021/12/01 06:16:54;;;;;;;0.13;0.13;;;5.40;99.90;;;;;;5035818;28;20017;-71
2021/12/01 06:19:21;;;;;;;0.15;0.15;;;5.30;99.90;;;;;;5053116;28;20025;-72
2021/12/01 06:21:47;;;;;;;0.40;0.40;;;5.20;99.90;;;;;;5053126;28;20040;-71
2021/12/01 06:24:13;;;;;;;0.20;0.20;;;5.20;99.90;;;;;;5053180;28;20025;-71
2021/12/01 06:26:38;;;;;;;0.13;0.13;;;5.10;99.90;;;;;;5052959;28;20075;-72
2021/12/01 06:29:04;;;;;;;0.20;0.20;;;5.00;99.90;;;;;;5035088;28;20035;-71
2021/12/01 06:31:30;;;;;;;0.10;0.10;;;5.00;99.90;;;;;;5052942;28;20086;-71
2021/12/01 06:33:58;;;;;;;0.40;0.40;;;5.00;99.90;;;;;;5052934;28;20032;-71
2021/12/01 06:36:25;;;;;;;0.20;0.20;;;5.00;99.90;;;;;;5052687;28;20358;-71
2021/12/01 06:38:50;;;;;;;0.43;0.43;;;4.90;99.90;;;;;;5053049;28;20025;-74
2021/12/01 06:41:16;;;;;;;0.10;0.10;;;4.90;99.90;;;;;;5034878;28;20112;-71
2021/12/01 06:43:42;;;;;;;0.10;0.10;;;5.00;99.90;;;;;;5036069;28;20035;-71
2021/12/01 06:46:08;;;;;;;0.40;0.25;;;5.00;99.90;;;;;;5056675;28;20111;-71
2021/12/01 06:48:33;;;;;;;0.20;0.20;;;4.90;99.90;;;;;;5060116;28;20100;-71
2021/12/01 06:50:59;;;;;;;0.50;0.50;;;5.00;99.90;;;;;;5058077;28;20122;-71
2021/12/01 06:53:26;;;;;;;0.10;0.10;;;5.10;99.90;;;;;;5060730;28;20033;-71
2021/12/01 06:55:53;;;;;;;16.55;4.95;;;5.20;99.90;;;;;;5051446;28;20021;-71
2021/12/01 06:58:20;;;;;;;0.65;0.63;;;5.40;99.90;;;;;;5052555;28;20124;-72
2021/12/01 07:00:46;;;;;;;0.20;0.20;;;5.30;99.90;;;;;;5065462;28;20127;-72
2021/12/01 07:03:12;;;;;;;0.13;0.13;;;5.20;99.90;;;;;;5072100;28;20028;-71
2021/12/01 07:05:38;;;;;;;0.10;0.10;;;5.10;99.90;;;;;;5065143;28;20050;-71
2021/12/01 07:08:04;;;;;;;0.10;0.10;;;5.00;99.90;;;;;;5052266;28;20021;-72
2021/12/01 07:10:30;;;;;;;0.10;0.10;;;5.00;99.90;;;;;;5052471;28;20051;-72
2021/12/01 07:12:56;;;;;;;0.10;0.10;;;5.00;99.90;;;;;;5052155;28;20051;-71
2021/12/01 07:15:22;;;;;;;0.10;0.10;;;5.10;99.90;;;;;;5051967;28;20492;-71
2021/12/01 07:17:48;;;;;;;0.15;0.15;;;5.10;99.90;;;;;;5034229;28;20103;-72
2021/12/01 07:20:15;;;;;;;0.10;0.10;;;5.10;99.90;;;;;;5051973;28;20017;-71
2021/12/01 07:22:42;;;;;;;0.10;0.10;;;5.10;99.90;;;;;;5052226;28;20070;-71
2021/12/01 07:25:08;;;;;;;0.10;0.10;;;5.00;99.90;;;;;;5059056;28;20116;-72
2021/12/01 07:27:34;;;;;;;0.13;0.13;;;5.00;99.90;;;;;;5042576;28;20409;-72
2021/12/01 07:30:00;;;;;;;0.10;0.10;;;5.00;99.90;;;;;;5064248;28;20071;-72
2021/12/01 07:32:26;;;;;;;0.15;0.15;;;5.00;99.90;;;;;;5052488;28;20052;-72
2021/12/01 07:34:52;;;;;;;0.10;0.10;;;4.90;99.90;;;;;;5064200;28;20053;-71
2021/12/01 07:37:18;;;;;;;0.13;0.13;;;5.10;99.90;;;;;;5051976;28;20017;-71
2021/12/01 07:39:46;;;;;;;0.10;0.10;;;5.20;99.90;;;;;;5051593;28;20106;-72
2021/12/01 07:42:13;;;;;;;0.10;0.10;;;5.30;99.90;;;;;;5062929;28;20053;-72
2021/12/01 07:44:38;;;;;;;0.10;0.10;;;5.40;99.90;;;;;;5071631;28;20511;-72
2021/12/01 07:47:05;;;;;;;0.15;0.15;;;5.40;99.90;;;;;;5071694;28;20124;-71
2021/12/01 07:49:31;;;;;;;0.10;0.10;;;5.40;99.90;;;;;;5060881;28;20108;-72
2021/12/01 07:51:57;;;;;;;0.65;0.65;;;5.30;99.90;;;;;;5051557;28;20606;-71
2021/12/01 07:54:24;;;;;;;0.10;0.10;;;5.20;99.90;;;;;;5051755;28;20029;-72
2021/12/01 07:56:50;;;;;;;0.30;0.30;;;5.20;99.90;;;;;;5050482;28;20060;-74
2021/12/01 07:59:16;;;;;;;1.10;0.30;;;5.30;99.90;;;;;;5033521;28;20025;-74
2021/12/01 08:01:43;;;;;;;0.10;0.10;;;5.30;99.90;;;;;;5033531;28;20381;-74
2021/12/01 08:04:10;;;;;;;0.50;0.50;;;5.30;99.90;;;;;;5051590;28;20036;-74
2021/12/01 08:06:35;;;;;;;0.15;0.15;;;5.30;99.90;;;;;;5051318;28;20025;-74
2021/12/01 08:09:02;;;;;;;0.20;0.20;;;5.30;99.90;;;;;;5033797;28;20115;-74
2021/12/01 08:11:28;;;;;;;0.88;0.70;;;5.30;99.90;;;;;;5051251;28;20029;-74
2021/12/01 08:13:54;;;;;;;1.38;0.22;;;5.30;99.90;;;;;;5051038;28;20029;-74
2021/12/01 08:16:20;;;;;;;0.10;0.10;;;5.40;99.90;;;;;;5050918;28;20036;-74
2021/12/01 08:18:51;;;;;;;0.13;0.13;;;5.40;99.90;;;;;;5046359;28;20468;-74
2021/12/01 08:21:17;;;;;;;0.10;0.10;;;5.50;99.90;;;;;;5031588;28;20028;-75
2021/12/01 08:23:43;;;;;;;0.35;0.35;;;5.50;99.90;;;;;;5038057;28;20025;-75
2021/12/01 08:26:09;;;;;;;0.20;0.20;;;5.60;99.90;;;;;;5056013;28;20025;-75
2021/12/01 08:28:35;;;;;;;1.15;1.15;;;5.40;99.90;;;;;;5039955;28;20035;-74
2021/12/01 08:31:00;;;;;;;0.28;0.28;;;5.30;99.90;;;;;;5074009;28;20089;-75
2021/12/01 08:33:26;;;;;;;0.82;0.50;;;5.20;99.90;;;;;;5042444;28;20033;-75
2021/12/01 08:35:52;;;;;;;0.38;0.38;;;5.10;99.90;;;;;;5057387;28;20025;-75
2021/12/01 08:38:18;;;;;;;0.10;0.10;;;5.10;99.90;;;;;;5054029;28;20021;-75
2021/12/01 08:40:44;;;;;;;0.17;0.17;;;5.20;99.90;;;;;;5057624;28;20112;-74
2021/12/01 08:43:10;;;;;;;0.20;0.20;;;5.30;99.90;;;;;;5045561;28;20079;-74
2021/12/01 08:45:36;;;;;;;0.28;0.28;;;5.30;99.90;;;;;;5053382;28;20036;-75
2021/12/01 08:48:03;;;;;;;0.70;0.30;;;5.30;99.90;;;;;;5049557;28;20032;-76
2021/12/01 08:50:29;;;;;;;0.10;0.10;;;5.40;99.90;;;;;;5047276;28;20029;-77
2021/12/01 08:52:56;;;;;;;0.10;0.10;;;5.50;99.90;;;;;;5040942;28;20033;-76
2021/12/01 08:55:23;;;;;;;0.10;0.10;;;5.70;99.90;;;;;;5056688;28;20021;-74
2021/12/01 08:57:49;;;;;;;0.32;0.32;;;5.80;99.90;;;;;;5040550;28;20025;-74
2021/12/01 09:00:18;;;;;;;0.57;0.40;;;5.90;99.90;;;;;;5053802;28;20075;-74
2021/12/01 09:02:44;;;;;;;0.17;0.17;;;5.80;99.90;;;;;;5047648;28;20024;-74
2021/12/01 09:05:10;;;;;;;0.50;0.50;;;5.80;99.90;;;;;;5054960;28;20028;-74
2021/12/01 09:07:36;;;;;;;0.85;0.60;;;5.70;99.90;;;;;;5053400;28;20476;-74
2021/12/01 09:10:04;;;;;;;0.40;0.40;;;5.80;99.90;;;;;;5030496;28;20036;-77
2021/12/01 09:12:29;;;;;;;0.30;0.30;;;5.90;99.90;;;;;;5053837;28;20029;-77
2021/12/01 09:14:57;;;;;;;0.85;0.80;;;5.80;99.90;;;;;;5049912;28;20056;-77
2021/12/01 09:17:24;;;;;;;0.43;0.43;;;5.70;99.90;;;;;;5055429;28;20045;-77
2021/12/01 09:19:50;;;;;;;0.20;0.20;;;5.60;99.90;;;;;;5045349;28;20469;-77
2021/12/01 09:22:18;;;;;;;0.10;0.10;;;5.60;99.90;;;;;;5041372;28;20421;-77
2021/12/01 09:24:45;;;;;;;0.20;0.20;;;5.60;99.90;;;;;;5054001;28;20017;-77
2021/12/01 09:27:11;;;;;;;0.70;0.63;;;5.50;99.90;;;;;;5053244;28;20492;-77
2021/12/01 09:29:37;;;;;;;0.28;0.28;;;5.80;99.90;;;;;;5040395;28;20060;-77
2021/12/01 09:32:05;;;;;;;0.98;0.93;;;5.80;99.90;;;;;;5053044;28;20025;-77
2021/12/01 09:34:31;;;;;;;0.15;0.15;;;6.10;99.90;;;;;;5020567;28;20484;-77
2021/12/01 09:36:57;;;;;;;0.10;0.10;;;6.50;99.90;;;;;;5047085;28;20021;-77
2021/12/01 09:39:24;;;;;;;0.10;0.10;;;7.10;99.90;;;;;;5040502;28;20048;-77
2021/12/01 09:41:50;;;;;;;0.30;0.30;;;7.70;99.90;;;;;;5028879;28;20055;-77
2021/12/01 09:44:16;;;;;;;0.10;0.10;;;8.00;99.90;;;;;;5052790;28;20488;-74
2021/12/01 09:46:42;;;;;;;0.45;0.45;;;8.60;99.90;;;;;;5045740;28;20050;-74
2021/12/01 09:49:08;;;;;;;0.13;0.13;;;8.90;99.90;;;;;;5052719;28;20504;-74
2021/12/01 09:51:34;;;;;;;0.10;0.10;;;9.30;99.90;;;;;;5052544;28;20021;-74
2021/12/01 09:54:01;;;;;;;0.10;0.10;;;9.80;99.90;;;;;;5038552;28;20484;-74
2021/12/01 09:56:28;;;;;;;0.30;0.30;;;10.30;99.90;;;;;;5054047;28;20033;-74
2021/12/01 09:58:54;;;;;;;0.40;0.40;;;10.60;99.90;;;;;;5044610;28;20481;-74
2021/12/01 10:01:22;;;;;;;2.92;1.55;;;11.10;99.90;;;;;;5055977;28;20051;-74
2021/12/01 10:03:48;;;;;;;0.30;0.30;;;11.40;99.90;;;;;;5052508;28;20021;-74
2021/12/01 10:06:20;;;;;;;0.10;0.10;;;11.40;98.70;;;;;;5045527;28;20076;-74
2021/12/01 10:08:52;;;;;;;0.40;0.40;;;11.00;99.30;;;;;;5050785;28;20031;-77
2021/12/01 10:11:27;;;;;;;0.20;0.20;;;10.70;99.80;;;;;;5056018;28;20381;-77
2021/12/01 10:14:00;;;;;;;0.10;0.10;;;10.10;99.90;;;;;;5055615;28;20400;-77
2021/12/01 10:16:28;;;;;;;0.20;0.20;;;9.50;99.90;;;;;;5048536;28;20029;-77
2021/12/01 10:18:58;;;;;;;0.10;0.10;;;8.90;99.90;;;;;;5044377;28;20116;-77
2021/12/01 10:21:34;;;;;;;0.82;0.82;;;9.10;99.90;;;;;;5055433;28;20020;-78
2021/12/01 10:24:11;;;;;;;3.40;1.75;;;9.00;99.90;;;;;;5054068;28;20108;-77
2021/12/01 10:26:41;;;;;;;0.75;0.47;;;8.70;99.90;;;;;;5039124;28;20497;-78
2021/12/01 10:29:11;;;;;;;0.10;0.10;;;8.40;99.90;;;;;;5055032;28;20029;-77
2021/12/01 10:31:43;;;;;;;0.10;0.10;;;8.90;99.90;;;;;;5062309;28;20395;-78
2021/12/01 10:35:00;;;;;;;0.10;0.10;;;9.20;99.90;;;;;;5058449;28;20047;-75
2021/12/01 10:37:31;;;;;;;0.63;0.30;;;10.50;99.90;;;;;;5012801;28;20041;-75
2021/12/01 10:40:23;;;;;;;0.13;0.13;;;11.60;99.90;;;;;;5051352;28;20025;-74
2021/12/01 10:42:57;;;;;;;1.27;0.95;;;12.00;96.10;;;;;;5040181;28;20477;-75
2021/12/01 10:45:45;;;;;;;0.10;0.10;;;11.00;98.30;;;;;;5051136;28;20071;-75
2021/12/01 10:48:21;;;;;;;0.43;0.15;;;10.40;99.90;;;;;;5043493;28;20062;-74
2021/12/01 10:50:47;;;;;;;0.10;0.10;;;10.60;99.90;;;;;;5051611;28;20067;-74
2021/12/01 10:53:19;;;;;;;0.10;0.10;;;10.20;99.90;;;;;;5051415;28;20052;-75
2021/12/01 10:55:55;;;;;;;0.20;0.20;;;10.20;99.90;;;;;;5035156;28;20435;-77
2021/12/01 10:58:21;;;;;;;0.20;0.20;;;10.10;99.90;;;;;;5050968;28;20060;-76
2021/12/01 11:00:53;;;;;;;0.63;0.47;;;9.80;99.90;;;;;;5051590;28;20380;-75
2021/12/01 11:03:29;;;;;;;0.55;0.55;;;9.20;99.90;;;;;;5051626;28;20107;-74
2021/12/01 11:06:08;;;;;;;0.15;0.15;;;8.80;99.90;;;;;;5049772;28;20504;-74
2021/12/01 11:08:41;;;;;;;2.72;2.53;;;8.30;99.90;;;;;;5044260;28;20469;-74
2021/12/01 11:11:12;;;;;;;2.63;1.65;;;8.30;99.90;;;;;;5049530;28;20388;-75
2021/12/01 11:13:41;;;;;;;0.30;0.30;;;8.20;99.90;;;;;;5039572;28;20476;-75
2021/12/01 11:16:12;;;;;;;0.20;0.20;;;8.60;99.90;;;;;;5038970;28;20132;-75
2021/12/01 11:18:49;;;;;;;0.20;0.20;;;8.80;99.90;;;;;;5049103;28;20017;-75
2021/12/01 11:21:22;;;;;;;0.13;0.13;;;8.40;99.90;;;;;;5050598;28;20346;-75
2021/12/01 11:23:51;;;;;;;0.17;0.17;;;8.40;99.90;;;;;;5050519;28;20028;-75
2021/12/01 11:26:20;;;;;;;0.30;0.30;;;8.30;99.90;;;;;;5050728;28;20040;-75
2021/12/01 11:28:57;;;;;;;0.55;0.55;;;8.30;99.90;;;;;;5050560;28;20033;-74
2021/12/01 11:31:25;;;;;;;0.10;0.10;;;8.20;99.90;;;;;;5038877;28;20029;-75
2021/12/01 11:34:01;;;;;;;0.28;0.28;;;8.10;99.90;;;;;;5046075;28;20037;-74
2021/12/01 11:36:39;;;;;;;0.20;0.20;;;8.00;99.90;;;;;;5049992;28;20361;-74
2021/12/01 11:39:10;;;;;;;0.20;0.20;;;7.80;99.90;;;;;;5057058;28;20020;-74
2021/12/01 11:41:41;;;;;;;0.20;0.20;;;7.60;99.90;;;;;;5024605;28;20025;-75
2021/12/01 11:44:08;;;;;;;0.38;0.38;;;7.60;99.90;;;;;;5043045;28;20029;-75
2021/12/01 11:46:34;;;;;;;0.47;0.47;;;7.70;99.90;;;;;;5032449;28;20040;-75
2021/12/01 11:49:04;;;;;;;0.30;0.30;;;7.70;99.90;;;;;;5052281;28;20017;-75
2021/12/01 11:51:30;;;;;;;0.20;0.20;;;7.60;99.90;;;;;;5024607;28;20177;-75
2021/12/01 11:53:58;;;;;;;0.13;0.13;;;7.60;99.90;;;;;;5053325;28;20107;-75
2021/12/01 11:56:29;;;;;;;0.40;0.40;;;7.70;99.90;;;;;;5042727;28;20029;-75
2021/12/01 11:58:58;;;;;;;0.20;0.20;;;8.00;99.90;;;;;;5052140;28;20509;-75
2021/12/01 12:01:24;;;;;;;0.13;0.13;;;8.10;99.90;;;;;;5056884;28;20025;-75
2021/12/01 12:04:01;;;;;;;0.75;0.60;;;8.60;99.90;;;;;;5043544;28;20032;-74
2021/12/01 12:06:32;;;;;;;0.30;0.30;;;9.00;99.90;;;;;;5056399;28;20448;-75
2021/12/01 12:09:10;;;;;;;0.17;0.17;;;9.10;99.90;;;;;;5041575;28;20028;-75
2021/12/01 12:11:37;;;;;;;0.10;0.10;;;9.10;99.90;;;;;;5056846;28;20033;-75
2021/12/01 12:14:11;;;;;;;0.30;0.30;;;9.30;99.90;;;;;;5060553;28;20081;-75
2021/12/01 12:16:39;;;;;;;0.35;0.22;;;9.20;99.90;;;;;;5056654;28;20048;-75
2021/12/01 12:19:06;;;;;;;0.20;0.20;;;9.30;99.90;;;;;;5057307;28;20027;-75
2021/12/01 12:21:42;;;;;;;0.20;0.20;;;9.40;99.90;;;;;;5050882;28;20025;-74
2021/12/01 12:24:13;;;;;;;1.48;0.47;;;9.60;99.90;;;;;;5053128;28;20067;-75
2021/12/01 12:26:45;;;;;;;0.10;0.10;;;9.60;99.90;;;;;;5054745;28;20021;-75
2021/12/01 12:29:15;;;;;;;0.10;0.10;;;9.60;99.90;;;;;;5056079;28;20090;-74
2021/12/01 12:31:42;;;;;;;0.60;0.60;;;9.70;99.90;;;;;;5048151;28;20033;-75
2021/12/01 12:34:18;;;;;;;4.68;0.55;;;9.70;99.90;;;;;;5056199;28;20079;-75
2021/12/01 12:36:57;;;;;;;0.10;0.10;;;9.50;99.90;;;;;;5048550;28;20112;-75
2021/12/01 12:39:27;;;;;;;0.10;0.10;;;9.50;99.90;;;;;;5043698;28;20485;-75
2021/12/01 12:41:55;;;;;;;0.10;0.10;;;9.40;99.90;;;;;;5058477;28;20017;-75
2021/12/01 12:44:38;;;;;;;0.10;0.10;;;9.30;99.90;;;;;;5043410;28;20087;-75
2021/12/01 12:47:07;;;;;;;0.10;0.10;;;9.30;99.90;;;;;;5057206;28;20032;-75
2021/12/01 12:49:38;;;;;;;0.68;0.68;;;9.20;99.90;;;;;;5057038;28;20028;-75
2021/12/01 12:52:27;;;;;;;0.40;0.40;;;9.20;99.90;;;;;;5043971;28;20020;-75
2021/12/01 12:55:14;;;;;;;0.13;0.13;;;9.20;99.90;;;;;;5035684;28;20033;-75
2021/12/01 12:57:59;;;;;;;1.27;0.38;;;9.10;99.90;;;;;;5042596;28;20059;-75
2021/12/01 13:00:32;;;;;;;0.10;0.10;;;9.00;99.90;;;;;;5059047;28;20024;-75
2021/12/01 13:03:23;;;;;;;0.20;0.20;;;9.00;99.90;;;;;;5056947;28;20021;-75
2021/12/01 13:05:57;;;;;;;0.17;0.17;;;9.10;99.90;;;;;;5041415;28;20033;-74
2021/12/01 13:08:38;;;;;;;0.20;0.20;;;9.10;99.90;;;;;;5033759;28;20090;-75